Time;durP1;ratioP1;P1;durP2;ratioP2;P2;SDS_P1;SDS_P2;PMS_P1;PMS_P2;Temp;Humidity;BMP_temperature;BMP_pressure;BME280_temperature;BME280_humidity;BME280_pressure;Samples;Min_cycle;Max_cycle;Signal;HPM_P1;HPM_P2
2023/05/24 00:01:01;;;;;;;9.17;2.70;;;9.40;99.90;;;;;;5053087;28;20276;-80
2023/05/24 00:03:29;;;;;;;6.33;2.67;;;9.40;99.90;;;;;;5053479;28;20217;-81
2023/05/24 00:05:56;;;;;;;7.00;2.67;;;9.40;99.90;;;;;;5052769;28;20233;-81
2023/05/24 00:08:23;;;;;;;8.10;2.87;;;9.40;99.90;;;;;;5053024;28;20204;-81
2023/05/24 00:10:52;;;;;;;7.40;2.63;;;9.40;99.90;;;;;;5072550;28;20208;-81
2023/05/24 00:13:19;;;;;;;10.80;3.70;;;9.40;99.90;;;;;;5072364;28;20232;-81
2023/05/24 00:15:45;;;;;;;13.30;4.57;;;9.40;99.90;;;;;;5072877;28;20290;-79
2023/05/24 00:18:12;;;;;;;9.27;3.37;;;9.40;99.90;;;;;;5062809;28;20301;-81
2023/05/24 00:20:39;;;;;;;8.97;3.57;;;9.40;99.90;;;;;;5052331;28;20348;-80
2023/05/24 00:23:06;;;;;;;12.60;3.40;;;9.40;99.90;;;;;;5052928;28;20208;-81
2023/05/24 00:25:33;;;;;;;10.27;3.27;;;9.40;99.90;;;;;;5060499;28;20263;-81
2023/05/24 00:28:02;;;;;;;8.43;3.33;;;9.40;99.90;;;;;;5072729;28;20193;-81
2023/05/24 00:30:29;;;;;;;8.33;2.93;;;9.50;99.90;;;;;;5073275;28;20209;-82
2023/05/24 00:32:56;;;;;;;10.83;3.53;;;9.40;99.90;;;;;;5063396;28;20237;-81
2023/05/24 00:35:23;;;;;;;9.70;3.50;;;9.50;99.90;;;;;;5052682;28;20202;-81
2023/05/24 00:37:49;;;;;;;9.50;3.60;;;9.50;99.90;;;;;;5051869;28;20294;-81
2023/05/24 00:40:16;;;;;;;14.40;3.50;;;9.50;99.90;;;;;;5052421;28;20230;-81
2023/05/24 00:42:43;;;;;;;15.23;4.33;;;9.50;99.90;;;;;;5052512;28;20280;-81
2023/05/24 00:45:12;;;;;;;10.67;3.27;;;9.50;99.90;;;;;;5052355;28;20622;-81
2023/05/24 00:47:40;;;;;;;7.23;2.80;;;9.50;99.90;;;;;;5051978;28;20190;-81
2023/05/24 00:50:10;;;;;;;10.90;3.53;;;9.50;99.90;;;;;;5052595;28;20565;-80
2023/05/24 00:52:38;;;;;;;9.87;3.50;;;9.50;99.90;;;;;;5052534;28;20603;-81
2023/05/24 00:55:06;;;;;;;11.60;3.27;;;9.60;99.90;;;;;;5052052;28;20201;-82
2023/05/24 00:57:33;;;;;;;7.93;3.03;;;9.50;99.90;;;;;;5052281;28;20205;-81
2023/05/24 01:00:00;;;;;;;14.30;3.70;;;9.60;99.90;;;;;;5052494;28;20592;-81
2023/05/24 01:02:28;;;;;;;13.47;3.97;;;9.60;99.90;;;;;;5052084;28;20642;-81
2023/05/24 01:04:56;;;;;;;9.70;3.43;;;9.60;99.90;;;;;;5052809;28;20662;-82
2023/05/24 01:07:27;;;;;;;11.17;3.67;;;9.60;99.90;;;;;;5052308;28;20198;-81
2023/05/24 01:10:07;;;;;;;10.13;3.07;;;9.60;99.90;;;;;;5052020;28;20189;-80
2023/05/24 01:12:46;;;;;;;9.10;3.20;;;9.60;99.90;;;;;;5052703;28;20726;-81
2023/05/24 01:15:22;;;;;;;12.73;4.17;;;9.60;99.90;;;;;;5051976;28;20431;-81
2023/05/24 01:18:00;;;;;;;9.93;4.07;;;9.70;99.90;;;;;;5068820;28;20300;-81
2023/05/24 01:20:31;;;;;;;13.37;3.80;;;9.70;99.90;;;;;;5072677;28;20220;-81
2023/05/24 01:23:18;;;;;;;16.00;5.30;;;9.70;99.90;;;;;;5066741;28;20292;-82
2023/05/24 01:26:06;;;;;;;15.83;3.87;;;9.70;99.90;;;;;;5052529;28;20190;-80
2023/05/24 01:28:35;;;;;;;10.63;3.47;;;9.70;99.90;;;;;;5052572;28;20198;-81
2023/05/24 01:31:03;;;;;;;11.40;3.90;;;9.70;99.90;;;;;;5051709;28;20493;-82
2023/05/24 01:33:30;;;;;;;13.00;3.80;;;9.70;99.90;;;;;;5067356;28;20201;-81
2023/05/24 01:35:57;;;;;;;12.57;4.27;;;9.70;99.90;;;;;;5071826;28;20277;-80
2023/05/24 01:38:24;;;;;;;13.37;4.03;;;9.70;99.90;;;;;;5071834;28;20205;-82
2023/05/24 01:41:00;;;;;;;13.13;3.93;;;9.70;99.90;;;;;;5071765;28;20201;-82
2023/05/24 01:43:35;;;;;;;11.40;3.03;;;9.70;99.90;;;;;;5071548;28;20197;-82
2023/05/24 01:46:10;;;;;;;12.33;3.70;;;9.60;99.90;;;;;;5071338;28;20615;-83
2023/05/24 01:48:48;;;;;;;11.17;3.57;;;9.60;99.90;;;;;;5068312;28;20296;-81
2023/05/24 01:51:19;;;;;;;12.40;3.63;;;9.60;99.90;;;;;;5055086;28;20201;-81
2023/05/24 01:53:46;;;;;;;12.83;4.70;;;9.60;99.90;;;;;;5055514;28;20547;-82
2023/05/24 01:56:14;;;;;;;13.37;3.43;;;9.60;99.90;;;;;;5055325;28;20620;-81
2023/05/24 01:58:43;;;;;;;11.27;3.90;;;9.60;99.90;;;;;;5055405;28;20280;-81
2023/05/24 02:01:13;;;;;;;11.93;3.93;;;9.50;99.90;;;;;;5055144;28;20279;-82
2023/05/24 02:03:40;;;;;;;17.33;3.87;;;9.50;99.90;;;;;;5055279;28;20586;-82
2023/05/24 02:06:09;;;;;;;11.53;3.33;;;9.50;99.90;;;;;;5055280;28;20296;-82
2023/05/24 02:08:36;;;;;;;9.30;3.40;;;9.50;99.90;;;;;;5056341;28;20209;-82
2023/05/24 02:11:03;;;;;;;10.90;3.30;;;9.50;99.90;;;;;;5055798;28;20308;-82
2023/05/24 02:13:30;;;;;;;9.10;3.03;;;9.40;99.90;;;;;;5065367;28;20655;-83
2023/05/24 02:15:56;;;;;;;8.30;3.30;;;9.40;99.90;;;;;;5075709;28;20546;-83
2023/05/24 02:18:25;;;;;;;8.83;3.30;;;9.40;99.90;;;;;;5073948;28;20652;-82
2023/05/24 02:20:52;;;;;;;15.87;4.13;;;9.40;99.90;;;;;;5074884;28;20276;-83
2023/05/24 02:23:18;;;;;;;10.63;3.47;;;9.40;99.90;;;;;;5075051;28;20205;-82
2023/05/24 02:25:45;;;;;;;9.47;3.17;;;9.30;99.90;;;;;;5057776;28;20667;-82
2023/05/24 02:28:12;;;;;;;7.40;3.10;;;9.30;99.90;;;;;;5054875;28;20304;-82
2023/05/24 02:30:43;;;;;;;10.73;3.70;;;9.30;99.90;;;;;;5055042;28;20655;-83
2023/05/24 02:33:10;;;;;;;7.50;2.83;;;9.30;99.90;;;;;;5054278;28;20727;-82
2023/05/24 02:35:40;;;;;;;10.23;3.87;;;9.20;99.90;;;;;;5055194;28;20198;-83
2023/05/24 02:38:08;;;;;;;10.27;3.47;;;9.20;99.90;;;;;;5054634;28;20206;-81
2023/05/24 02:40:35;;;;;;;6.87;2.83;;;9.20;99.90;;;;;;5053838;28;20233;-81
2023/05/24 02:43:02;;;;;;;9.57;3.27;;;9.20;99.90;;;;;;5054510;28;20726;-81
2023/05/24 02:45:29;;;;;;;10.20;3.67;;;9.20;99.90;;;;;;5054392;28;20232;-81
2023/05/24 02:47:56;;;;;;;7.93;3.77;;;9.10;99.90;;;;;;5054020;28;20198;-80
2023/05/24 02:50:23;;;;;;;10.47;3.87;;;9.10;99.90;;;;;;5054693;28;20206;-81
2023/05/24 02:52:51;;;;;;;11.67;3.40;;;9.10;99.90;;;;;;5054233;28;20288;-81
2023/05/24 02:55:18;;;;;;;7.17;3.10;;;9.10;99.90;;;;;;5068452;28;20615;-82
2023/05/24 02:57:46;;;;;;;10.97;3.70;;;9.10;99.90;;;;;;5075272;28;20197;-81
2023/05/24 03:00:14;;;;;;;8.63;3.50;;;9.10;99.90;;;;;;5074155;28;20205;-82
2023/05/24 03:02:41;;;;;;;12.60;4.00;;;9.10;99.90;;;;;;5074201;28;20758;-82
2023/05/24 03:05:09;;;;;;;8.23;3.57;;;9.10;99.90;;;;;;5074668;28;20221;-82
2023/05/24 03:07:36;;;;;;;11.67;3.63;;;9.10;99.90;;;;;;5073139;28;20272;-81
2023/05/24 03:10:05;;;;;;;12.47;3.67;;;9.10;99.90;;;;;;5074756;28;20202;-82
2023/05/24 03:12:32;;;;;;;9.40;3.30;;;9.10;99.90;;;;;;5063549;28;20210;-81
2023/05/24 03:14:59;;;;;;;7.43;3.27;;;9.00;99.90;;;;;;5054997;28;20200;-80
2023/05/24 03:17:26;;;;;;;11.00;2.97;;;9.00;99.90;;;;;;5054846;28;20197;-81
2023/05/24 03:19:53;;;;;;;8.97;3.10;;;9.00;99.90;;;;;;5054999;28;20198;-82
2023/05/24 03:22:20;;;;;;;10.17;3.80;;;9.10;99.90;;;;;;5054207;28;20569;-81
2023/05/24 03:24:47;;;;;;;9.93;3.63;;;9.00;99.90;;;;;;5054365;28;20222;-82
2023/05/24 03:27:15;;;;;;;13.60;4.10;;;9.00;99.90;;;;;;5054009;28;20224;-81
2023/05/24 03:29:42;;;;;;;15.50;4.53;;;9.00;99.90;;;;;;5054600;28;20689;-81
2023/05/24 03:32:09;;;;;;;18.67;4.70;;;9.00;99.90;;;;;;5054385;28;20516;-81
2023/05/24 03:34:36;;;;;;;13.30;4.97;;;9.00;99.90;;;;;;5054152;28;20194;-82
2023/05/24 03:37:03;;;;;;;16.67;4.37;;;9.00;99.90;;;;;;5053560;28;20277;-83
2023/05/24 03:39:30;;;;;;;20.20;4.47;;;9.00;99.90;;;;;;5053193;28;20325;-80
2023/05/24 03:41:57;;;;;;;12.43;4.27;;;9.00;99.90;;;;;;5053802;28;20202;-81
2023/05/24 03:44:26;;;;;;;14.30;4.30;;;9.00;99.90;;;;;;5053163;28;20226;-81
2023/05/24 03:46:53;;;;;;;12.40;4.40;;;9.10;99.90;;;;;;5054303;28;20294;-81
2023/05/24 03:49:19;;;;;;;11.63;3.73;;;9.10;99.90;;;;;;5053660;28;20190;-81
2023/05/24 03:51:46;;;;;;;12.20;4.43;;;9.10;99.90;;;;;;5053298;28;20301;-81
2023/05/24 03:54:13;;;;;;;8.57;4.47;;;9.10;99.90;;;;;;5063328;28;20268;-82
2023/05/24 03:56:40;;;;;;;8.73;4.10;;;9.20;99.90;;;;;;5073173;28;20203;-81
2023/05/24 03:59:07;;;;;;;8.43;3.50;;;9.20;99.90;;;;;;5073547;28;20229;-80
2023/05/24 04:01:36;;;;;;;8.63;3.33;;;9.20;99.90;;;;;;5072637;28;20208;-81
2023/05/24 04:04:03;;;;;;;7.53;3.40;;;9.30;99.90;;;;;;5053381;28;20202;-81
2023/05/24 04:06:30;;;;;;;10.23;3.63;;;9.30;99.90;;;;;;5053633;28;20198;-83
2023/05/24 04:08:58;;;;;;;8.67;3.13;;;9.40;99.90;;;;;;5053478;28;20294;-82
2023/05/24 04:11:27;;;;;;;8.60;3.40;;;9.40;99.90;;;;;;5052868;28;20584;-83
2023/05/24 04:13:55;;;;;;;7.07;3.30;;;9.40;99.90;;;;;;5053602;28;20208;-81
2023/05/24 04:16:23;;;;;;;11.83;3.60;;;9.50;99.90;;;;;;5053420;28;20272;-81
2023/05/24 04:18:52;;;;;;;11.93;3.70;;;9.50;99.90;;;;;;5052964;28;20194;-82
2023/05/24 04:21:19;;;;;;;10.90;4.57;;;9.60;99.90;;;;;;5060933;28;20297;-83
2023/05/24 04:23:46;;;;;;;8.77;3.00;;;9.60;99.90;;;;;;5073659;28;20233;-82
2023/05/24 04:26:13;;;;;;;8.87;2.87;;;9.70;99.90;;;;;;5073365;28;20237;-82
2023/05/24 04:28:40;;;;;;;11.40;3.40;;;9.80;99.90;;;;;;5073334;28;20271;-83
2023/05/24 04:31:08;;;;;;;11.10;3.87;;;9.90;99.90;;;;;;5056341;28;20255;-80
2023/05/24 04:33:35;;;;;;;10.40;3.40;;;9.90;99.90;;;;;;5053104;28;20205;-82
2023/05/24 04:36:04;;;;;;;10.63;4.10;;;10.00;99.90;;;;;;5053250;28;20213;-80
2023/05/24 04:38:33;;;;;;;10.63;4.27;;;10.00;99.90;;;;;;5053362;28;20234;-82
2023/05/24 04:41:00;;;;;;;14.07;4.13;;;10.10;99.90;;;;;;5053318;28;20186;-82
2023/05/24 04:43:27;;;;;;;13.17;4.30;;;10.30;99.90;;;;;;5068625;28;20355;-81
2023/05/24 04:45:54;;;;;;;15.90;3.90;;;10.40;99.90;;;;;;5072613;28;20309;-82
2023/05/24 04:48:23;;;;;;;15.17;4.23;;;10.50;99.90;;;;;;5057902;28;20594;-82
2023/05/24 04:50:51;;;;;;;15.00;4.47;;;10.60;99.90;;;;;;5052701;28;20666;-83
2023/05/24 04:53:19;;;;;;;12.53;4.63;;;10.70;99.90;;;;;;5053045;28;20212;-83
2023/05/24 04:55:46;;;;;;;12.83;4.13;;;10.80;99.90;;;;;;5053206;28;20205;-83
2023/05/24 04:58:13;;;;;;;10.23;3.50;;;10.90;99.90;;;;;;5053199;28;20206;-84
2023/05/24 05:00:40;;;;;;;10.80;4.47;;;10.90;99.90;;;;;;5053858;28;20212;-82
2023/05/24 05:03:07;;;;;;;15.50;4.70;;;11.10;99.90;;;;;;5053125;28;20613;-83
2023/05/24 05:05:34;;;;;;;14.27;4.07;;;11.20;99.90;;;;;;5052466;28;20733;-82
2023/05/24 05:08:02;;;;;;;12.67;4.00;;;11.30;99.90;;;;;;5069027;28;20216;-81
2023/05/24 05:10:30;;;;;;;15.77;4.20;;;11.50;99.90;;;;;;5072606;28;20201;-84
2023/05/24 05:12:57;;;;;;;17.67;4.37;;;11.60;99.90;;;;;;5073167;28;20597;-81
2023/05/24 05:15:25;;;;;;;15.23;4.30;;;11.80;99.90;;;;;;5072611;28;20601;-82
2023/05/24 05:17:51;;;;;;;16.83;4.50;;;11.90;99.90;;;;;;5068258;28;20201;-83
2023/05/24 05:20:19;;;;;;;13.30;4.37;;;12.20;99.90;;;;;;5052712;28;20215;-83
2023/05/24 05:22:46;;;;;;;12.93;4.37;;;12.30;99.90;;;;;;5053225;28;20731;-81
2023/05/24 05:25:13;;;;;;;17.50;4.70;;;12.60;99.90;;;;;;5056515;28;20279;-84
2023/05/24 05:27:42;;;;;;;18.20;3.97;;;12.90;99.90;;;;;;5056962;28;20273;-81
2023/05/24 05:30:10;;;;;;;11.17;3.47;;;13.10;99.90;;;;;;5058764;28;20626;-83
2023/05/24 05:32:37;;;;;;;12.47;4.53;;;13.30;99.90;;;;;;5077017;28;20200;-82
2023/05/24 05:35:04;;;;;;;13.33;3.47;;;13.50;99.90;;;;;;5067593;28;20202;-82
2023/05/24 05:37:31;;;;;;;13.23;3.33;;;13.70;99.90;;;;;;5056650;28;20281;-82
2023/05/24 05:39:58;;;;;;;14.57;3.17;;;13.80;99.90;;;;;;5056399;28;20588;-83
2023/05/24 05:42:25;;;;;;;13.37;3.70;;;13.90;99.90;;;;;;5056110;28;20875;-84
2023/05/24 05:44:53;;;;;;;10.70;3.00;;;14.00;99.90;;;;;;5056829;28;20202;-82
2023/05/24 05:47:20;;;;;;;14.20;4.27;;;14.30;99.90;;;;;;5062512;28;20205;-81
2023/05/24 05:49:47;;;;;;;13.27;3.73;;;14.60;99.90;;;;;;5075895;28;20279;-82
2023/05/24 05:52:14;;;;;;;13.10;3.80;;;14.80;19.50;;;;;;5057541;28;20286;-82
2023/05/24 05:54:41;;;;;;;14.80;4.03;;;14.90;1.00;;;;;;5056105;28;20289;-82
2023/05/24 05:57:10;;;;;;;11.07;3.70;;;15.00;1.00;;;;;;5055775;28;20194;-84
2023/05/24 05:59:37;;;;;;;7.77;2.90;;;15.20;1.00;;;;;;5057880;28;20210;-82
2023/05/24 06:02:06;;;;;;;9.20;3.53;;;15.50;1.00;;;;;;5075758;28;20221;-83
2023/05/24 06:04:33;;;;;;;12.03;3.40;;;15.80;1.00;;;;;;5075571;28;20673;-82
2023/05/24 06:07:00;;;;;;;9.60;3.25;;;16.20;1.00;;;;;;5075559;28;20228;-82
2023/05/24 06:09:27;;;;;;;8.98;2.88;;;16.60;1.00;;;;;;5060431;28;20259;-83
2023/05/24 06:11:54;;;;;;;10.63;3.53;;;16.90;1.00;;;;;;5056798;28;20298;-81
2023/05/24 06:14:23;;;;;;;10.98;4.10;;;17.00;1.00;;;;;;5076012;28;20228;-83
2023/05/24 06:16:51;;;;;;;11.68;2.97;;;17.00;1.00;;;;;;5075419;28;20221;-83
2023/05/24 06:19:19;;;;;;;15.43;3.47;;;17.00;1.00;;;;;;5063387;28;20255;-82
2023/05/24 06:21:48;;;;;;;10.55;3.15;;;17.10;1.00;;;;;;5055116;28;20202;-80
2023/05/24 06:24:19;;;;;;;9.95;2.90;;;17.30;1.00;;;;;;5055211;28;20202;-80
2023/05/24 06:26:46;;;;;;;12.10;3.75;;;17.50;1.00;;;;;;5065457;28;20213;-82
2023/05/24 06:29:13;;;;;;;12.40;3.35;;;17.70;1.00;;;;;;5075729;28;20826;-83
2023/05/24 06:31:40;;;;;;;9.48;2.65;;;17.90;1.00;;;;;;5068873;28;20204;-80
2023/05/24 06:34:07;;;;;;;9.85;3.38;;;18.00;99.90;;;;;;5075186;28;20196;-84
2023/05/24 06:36:41;;;;;;;8.25;2.67;;;18.20;99.90;;;;;;5074501;28;20305;-84
2023/05/24 06:39:10;;;;;;;11.52;3.33;;;18.50;99.90;;;;;;5055748;28;20552;-80
2023/05/24 06:41:37;;;;;;;8.68;3.45;;;18.60;99.90;;;;;;5058289;28;20193;-84
2023/05/24 06:44:04;;;;;;;10.75;3.50;;;18.80;99.90;;;;;;5075734;28;20252;-86
2023/05/24 06:46:31;;;;;;;11.20;3.20;;;18.80;99.90;;;;;;5074965;28;20349;-83
2023/05/24 06:48:58;;;;;;;10.65;2.97;;;18.80;99.90;;;;;;5074415;28;20201;-82
2023/05/24 06:51:25;;;;;;;9.05;3.33;;;18.90;99.90;;;;;;5074976;28;20489;-84
2023/05/24 06:53:53;;;;;;;8.73;2.95;;;18.90;99.90;;;;;;5045372;28;20202;-82
2023/05/24 06:56:20;;;;;;;11.85;3.63;;;18.90;99.90;;;;;;5057118;28;20281;-83
2023/05/24 06:58:47;;;;;;;8.02;2.85;;;19.10;99.90;;;;;;5065211;28;20277;-87
2023/05/24 07:01:15;;;;;;;10.40;3.28;;;19.20;99.90;;;;;;5071696;28;20221;-90
2023/05/24 07:03:42;;;;;;;9.80;3.13;;;19.30;99.90;;;;;;5063386;28;20204;-80
2023/05/24 07:06:12;;;;;;;8.07;3.10;;;19.20;99.90;;;;;;5075943;28;20229;-87
2023/05/24 07:08:39;;;;;;;12.00;3.13;;;19.00;99.90;;;;;;5074898;28;20251;-88
2023/05/24 07:11:08;;;;;;;10.27;3.45;;;19.00;99.90;;;;;;5061576;28;20200;-84
2023/05/24 07:13:35;;;;;;;11.15;3.08;;;19.30;99.90;;;;;;5056027;28;20471;-86
2023/05/24 07:16:02;;;;;;;9.93;3.33;;;19.30;99.90;;;;;;5057490;28;20201;-83
2023/05/24 07:18:30;;;;;;;8.88;3.42;;;19.40;99.90;;;;;;5075624;28;20612;-81
2023/05/24 07:20:57;;;;;;;10.30;3.17;;;19.60;99.90;;;;;;5075427;28;20201;-86
2023/05/24 07:23:24;;;;;;;5.97;2.53;;;19.80;99.90;;;;;;5075001;28;20280;-81
2023/05/24 07:25:51;;;;;;;8.90;2.83;;;19.90;99.90;;;;;;5075518;28;20882;-84
2023/05/24 07:28:20;;;;;;;9.45;3.30;;;19.80;99.90;;;;;;5074442;28;20197;-84
2023/05/24 07:30:47;;;;;;;11.95;3.47;;;19.80;99.90;;;;;;5060177;28;20606;-84
2023/05/24 07:33:14;;;;;;;9.15;3.33;;;20.00;99.90;;;;;;5054253;28;20298;-81
2023/05/24 07:35:42;;;;;;;8.60;3.47;;;20.00;99.90;;;;;;5053795;28;20197;-82
2023/05/24 07:38:09;;;;;;;9.43;3.10;;;20.10;99.90;;;;;;5053701;28;20202;-82
2023/05/24 07:40:36;;;;;;;8.30;3.17;;;20.00;99.90;;;;;;5071469;28;20503;-82
2023/05/24 07:43:03;;;;;;;9.65;3.47;;;20.00;99.90;;;;;;5074066;28;20209;-83
2023/05/24 07:45:31;;;;;;;11.55;3.45;;;20.00;99.90;;;;;;5066564;28;20205;-82
2023/05/24 07:47:58;;;;;;;8.57;2.72;;;20.00;99.90;;;;;;5055260;28;20194;-83
2023/05/24 07:50:25;;;;;;;7.65;3.05;;;19.90;99.90;;;;;;5057341;28;20201;-82
2023/05/24 07:52:52;;;;;;;54.28;8.65;;;19.70;99.90;;;;;;5057980;28;20225;-81
2023/05/24 07:55:19;;;;;;;18.98;3.92;;;20.00;99.90;;;;;;5056052;28;20202;-84
2023/05/24 07:57:46;;;;;;;19.23;4.07;;;20.30;99.90;;;;;;5054045;28;20296;-83
2023/05/24 08:00:15;;;;;;;11.65;3.47;;;20.80;99.90;;;;;;5053793;28;20679;-83
2023/05/24 08:02:45;;;;;;;16.88;6.00;;;20.70;99.90;;;;;;5053782;28;20360;-84
2023/05/24 08:05:12;;;;;;;10.90;3.22;;;20.80;99.90;;;;;;5053666;28;20210;-83
2023/05/24 08:07:40;;;;;;;8.50;3.13;;;21.00;99.90;;;;;;5053402;28;20281;-87
2023/05/24 08:10:09;;;;;;;8.45;3.40;;;21.10;99.90;;;;;;5063449;28;20205;-81
2023/05/24 08:12:35;;;;;;;10.80;3.45;;;21.20;99.90;;;;;;5072279;28;20205;-81
2023/05/24 08:15:02;;;;;;;9.95;3.45;;;21.40;99.90;;;;;;5074338;28;20235;-86
2023/05/24 08:17:30;;;;;;;10.45;3.40;;;21.60;99.90;;;;;;5073228;28;20262;-85
2023/05/24 08:36:11;;;;;;;14.75;3.72;;;21.00;99.90;;;;;;5153330;27;20537;-87
2023/05/24 08:38:38;;;;;;;8.63;3.28;;;21.10;99.90;;;;;;5140414;27;20205;-86
2023/05/24 08:41:07;;;;;;;8.15;3.17;;;21.30;99.90;;;;;;5152331;27;20194;-81
2023/05/24 08:43:34;;;;;;;8.77;3.38;;;21.50;99.90;;;;;;5152781;27;20310;-84
2023/05/24 08:46:02;;;;;;;14.13;3.75;;;21.40;99.90;;;;;;5151758;27;20236;-82
2023/05/24 08:48:29;;;;;;;8.07;3.40;;;21.30;99.90;;;;;;5145375;27;20213;-83
2023/05/24 08:50:58;;;;;;;10.38;3.53;;;21.00;99.90;;;;;;5151521;27;20194;-82
2023/05/24 08:53:27;;;;;;;10.82;3.47;;;20.70;99.90;;;;;;5150998;27;20206;-82
2023/05/24 08:55:55;;;;;;;8.02;3.28;;;20.80;99.90;;;;;;5151580;27;20668;-81
2023/05/24 08:58:22;;;;;;;9.38;3.45;;;21.00;99.90;;;;;;5130963;27;20230;-81
2023/05/24 09:00:49;;;;;;;8.68;3.35;;;21.00;99.90;;;;;;5129234;28;20600;-82
2023/05/24 09:03:17;;;;;;;10.02;2.90;;;21.40;99.90;;;;;;5130139;27;20214;-83
2023/05/24 09:05:44;;;;;;;9.60;3.67;;;21.30;99.90;;;;;;5129683;28;20215;-82
2023/05/24 09:08:12;;;;;;;10.52;3.28;;;21.20;99.90;;;;;;5129896;27;20219;-82
2023/05/24 09:10:40;;;;;;;8.70;3.28;;;21.40;99.90;;;;;;5131351;28;20249;-82
2023/05/24 09:13:08;;;;;;;8.70;3.30;;;21.30;99.90;;;;;;5130488;27;20871;-80
2023/05/24 09:15:35;;;;;;;10.73;3.42;;;21.40;99.90;;;;;;5133861;27;20229;-82
2023/05/24 09:18:02;;;;;;;7.80;2.95;;;21.50;99.90;;;;;;5148283;27;20290;-82
2023/05/24 09:20:30;;;;;;;7.93;2.88;;;21.70;99.90;;;;;;5137686;27;20199;-81
2023/05/24 09:22:59;;;;;;;8.75;2.95;;;21.90;99.90;;;;;;5130436;28;20563;-85
2023/05/24 09:25:28;;;;;;;6.05;2.75;;;22.00;99.90;;;;;;5130846;28;20499;-82
2023/05/24 09:27:57;;;;;;;11.48;3.50;;;21.90;99.90;;;;;;5129790;27;20580;-87
2023/05/24 09:30:23;;;;;;;8.90;2.97;;;22.00;99.90;;;;;;5130536;27;20199;-82
2023/05/24 09:32:58;;;;;;;9.95;3.20;;;22.00;99.90;;;;;;5130185;28;20191;-81
2023/05/24 09:35:27;;;;;;;7.63;3.05;;;22.10;99.90;;;;;;5129623;28;20518;-83
2023/05/24 09:37:58;;;;;;;8.40;3.17;;;22.30;99.90;;;;;;5129374;27;20207;-80
2023/05/24 09:40:26;;;;;;;8.05;3.22;;;22.20;99.90;;;;;;5129754;27;20596;-83
2023/05/24 09:43:08;;;;;;;7.43;3.13;;;22.30;99.90;;;;;;5129691;28;20234;-83
2023/05/24 09:45:41;;;;;;;14.80;3.38;;;22.30;99.90;;;;;;5127322;28;20220;-82
2023/05/24 09:48:11;;;;;;;6.85;2.97;;;22.00;99.90;;;;;;5115982;28;20924;-81
2023/05/24 09:50:38;;;;;;;6.43;2.28;;;21.90;99.90;;;;;;5115444;28;20204;-79
2023/05/24 09:53:05;;;;;;;8.70;3.22;;;21.90;99.90;;;;;;5116071;28;20230;-81
2023/05/24 09:55:36;;;;;;;7.78;3.55;;;22.00;99.90;;;;;;5115802;28;20219;-82
2023/05/24 09:58:04;;;;;;;7.13;3.25;;;22.00;99.90;;;;;;5116611;28;20192;-82
2023/05/24 10:00:38;;;;;;;9.48;3.30;;;22.10;99.90;;;;;;5116122;28;20234;-80
2023/05/24 10:03:06;;;;;;;8.98;2.90;;;21.80;99.90;;;;;;5116051;28;20303;-83
2023/05/24 10:05:34;;;;;;;8.13;2.85;;;21.90;99.90;;;;;;5115655;28;20210;-81
2023/05/24 10:08:03;;;;;;;8.68;3.28;;;22.00;99.90;;;;;;5115777;28;20232;-81
2023/05/24 10:10:31;;;;;;;6.78;2.80;;;22.10;99.90;;;;;;5115388;28;20207;-83
2023/05/24 10:12:59;;;;;;;7.35;2.40;;;22.30;99.90;;;;;;5115467;28;20644;-81
2023/05/24 10:15:26;;;;;;;6.53;3.13;;;22.50;99.90;;;;;;5116036;28;20223;-81
2023/05/24 10:17:56;;;;;;;10.15;3.55;;;22.70;99.90;;;;;;5115858;27;20199;-80
2023/05/24 10:20:23;;;;;;;10.98;3.60;;;22.70;99.90;;;;;;5133972;27;20235;-81
2023/05/24 10:22:53;;;;;;;7.18;3.03;;;22.50;99.90;;;;;;5136044;27;20210;-80
2023/05/24 10:25:24;;;;;;;11.40;3.78;;;22.20;99.90;;;;;;5135721;27;20191;-83
2023/05/24 10:27:53;;;;;;;9.57;3.25;;;21.70;99.90;;;;;;5136220;27;20207;-82
2023/05/24 10:30:30;;;;;;;10.75;3.58;;;21.40;99.90;;;;;;5136095;27;20203;-82
2023/05/24 10:33:01;;;;;;;12.05;4.30;;;21.50;99.90;;;;;;5120020;27;20203;-80
2023/05/24 10:35:29;;;;;;;8.65;3.08;;;21.20;99.90;;;;;;5115418;28;20224;-81
2023/05/24 10:37:56;;;;;;;10.48;3.13;;;21.20;99.90;;;;;;5114992;27;20211;-82
2023/05/24 10:40:25;;;;;;;10.23;3.30;;;21.50;99.90;;;;;;5115299;27;20618;-79
2023/05/24 10:42:53;;;;;;;6.32;2.85;;;21.80;99.90;;;;;;5114731;28;20858;-86
2023/05/24 10:45:34;;;;;;;10.55;3.47;;;22.10;99.90;;;;;;5113959;28;20759;-85
2023/05/24 10:48:10;;;;;;;10.07;3.42;;;22.10;99.90;;;;;;5128186;27;20294;-80
2023/05/24 10:50:36;;;;;;;7.47;3.35;;;21.80;99.90;;;;;;5129132;27;20214;-82
2023/05/24 10:53:13;;;;;;;9.38;3.13;;;21.90;99.90;;;;;;5133769;27;20282;-82
2023/05/24 10:55:57;;;;;;;6.68;2.80;;;21.70;99.90;;;;;;5119575;27;20214;-81
2023/05/24 10:58:29;;;;;;;7.97;3.13;;;21.60;99.90;;;;;;5133742;27;20199;-82
2023/05/24 11:00:56;;;;;;;9.25;3.20;;;21.70;99.90;;;;;;5131076;27;20200;-83
2023/05/24 11:03:25;;;;;;;11.35;3.30;;;21.60;99.90;;;;;;5133979;27;20203;-82
2023/05/24 11:05:54;;;;;;;10.48;2.85;;;21.60;99.90;;;;;;5121496;27;20219;-80
2023/05/24 11:08:25;;;;;;;10.45;3.35;;;21.90;99.90;;;;;;5135197;27;20192;-83
2023/05/24 11:11:04;;;;;;;7.88;2.72;;;21.90;99.90;;;;;;5129047;27;20211;-85
2023/05/24 11:13:32;;;;;;;7.47;3.47;;;22.00;99.90;;;;;;5121497;27;20192;-82
2023/05/24 11:16:00;;;;;;;9.30;2.83;;;21.70;99.90;;;;;;5123522;27;20216;-84
2023/05/24 11:18:29;;;;;;;11.10;3.63;;;21.80;99.90;;;;;;5114860;28;20740;-80
2023/05/24 11:21:00;;;;;;;6.35;3.20;;;21.90;99.90;;;;;;5113808;28;20638;-82
2023/05/24 11:23:27;;;;;;;8.57;3.10;;;21.90;99.90;;;;;;5114283;27;20185;-82
2023/05/24 11:25:54;;;;;;;10.77;3.17;;;21.80;99.90;;;;;;5113516;28;20206;-80
2023/05/24 11:28:22;;;;;;;10.10;3.17;;;22.00;99.90;;;;;;5118884;27;20211;-84
2023/05/24 11:30:49;;;;;;;7.53;3.08;;;22.20;99.90;;;;;;5113567;27;20879;-81
2023/05/24 11:33:17;;;;;;;8.40;3.40;;;22.30;99.90;;;;;;5116181;27;20664;-81
2023/05/24 11:35:46;;;;;;;8.48;3.30;;;22.40;99.90;;;;;;5133137;27;20235;-79
2023/05/24 11:38:13;;;;;;;9.95;3.50;;;22.40;99.90;;;;;;5133744;27;20290;-79
2023/05/24 11:40:43;;;;;;;7.45;3.20;;;22.00;99.70;;;;;;5114248;28;20196;-85
2023/05/24 11:43:16;;;;;;;7.72;3.30;;;21.70;99.90;;;;;;5122154;27;20195;-83
2023/05/24 11:45:44;;;;;;;13.98;3.83;;;21.60;99.90;;;;;;5133301;27;20201;-79
2023/05/24 11:48:11;;;;;;;11.18;3.20;;;21.60;99.90;;;;;;5125360;27;20212;-78
2023/05/24 11:50:40;;;;;;;7.03;3.30;;;21.40;99.90;;;;;;5114245;27;20195;-81
2023/05/24 11:53:10;;;;;;;6.88;3.05;;;21.20;99.90;;;;;;5130490;27;20209;-81
2023/05/24 11:55:38;;;;;;;8.50;3.05;;;21.20;99.90;;;;;;5133461;27;20310;-82
2023/05/24 11:58:10;;;;;;;12.18;3.88;;;21.20;99.90;;;;;;5133972;27;20224;-81
2023/05/24 12:00:38;;;;;;;7.53;3.08;;;21.10;99.90;;;;;;5122273;27;20762;-80
2023/05/24 12:03:07;;;;;;;10.70;3.53;;;20.90;99.90;;;;;;5111756;28;20227;-82
2023/05/24 12:05:35;;;;;;;12.95;4.47;;;20.80;99.90;;;;;;5112539;28;20253;-80
2023/05/24 12:08:04;;;;;;;11.95;3.45;;;20.60;99.90;;;;;;5112302;28;20296;-83
2023/05/24 12:10:34;;;;;;;11.32;3.75;;;20.40;99.90;;;;;;5112892;28;20199;-85
2023/05/24 12:13:01;;;;;;;12.00;3.45;;;20.30;99.90;;;;;;5112662;28;20238;-82
2023/05/24 12:15:29;;;;;;;11.77;3.00;;;20.20;99.90;;;;;;5112330;28;20219;-82
2023/05/24 12:17:56;;;;;;;11.27;3.60;;;20.30;99.90;;;;;;5112374;28;20208;-82
2023/05/24 12:20:23;;;;;;;10.50;3.28;;;20.30;99.90;;;;;;5113129;28;20204;-82
2023/05/24 12:22:51;;;;;;;9.57;3.55;;;20.30;99.90;;;;;;5113522;28;20196;-83
2023/05/24 12:25:20;;;;;;;8.75;3.00;;;20.20;99.90;;;;;;5112102;28;20227;-79
2023/05/24 12:27:54;;;;;;;9.63;3.25;;;20.30;99.90;;;;;;5113197;28;20253;-79
2023/05/24 12:30:23;;;;;;;12.05;3.83;;;20.40;99.90;;;;;;5112441;28;20210;-80
2023/05/24 12:32:50;;;;;;;12.63;3.65;;;20.10;99.90;;;;;;5112578;28;20195;-84
2023/05/24 12:35:18;;;;;;;12.35;3.42;;;20.00;99.90;;;;;;5112943;28;20231;-82
2023/05/24 12:37:45;;;;;;;10.05;2.90;;;19.90;99.90;;;;;;5111845;28;20211;-80
2023/05/24 12:40:18;;;;;;;8.90;3.42;;;20.00;99.90;;;;;;5112471;28;20200;-79
2023/05/24 12:42:48;;;;;;;7.97;2.75;;;20.20;99.90;;;;;;5112038;28;20212;-79
2023/05/24 12:45:21;;;;;;;9.43;3.15;;;20.10;99.90;;;;;;5112347;28;20195;-80
2023/05/24 12:47:49;;;;;;;8.48;3.00;;;20.00;99.90;;;;;;5113008;28;20199;-80
2023/05/24 12:50:16;;;;;;;7.32;3.25;;;20.10;99.90;;;;;;5112090;28;20275;-80
2023/05/24 12:52:45;;;;;;;8.30;3.33;;;20.10;99.90;;;;;;5129954;28;20489;-78
2023/05/24 12:55:13;;;;;;;9.75;3.58;;;20.10;99.90;;;;;;5132849;28;20199;-79
2023/05/24 12:57:40;;;;;;;12.52;3.42;;;20.10;99.90;;;;;;5133214;28;20602;-79
2023/05/24 13:00:09;;;;;;;9.85;2.67;;;20.20;99.90;;;;;;5125303;28;20729;-81
2023/05/24 13:02:38;;;;;;;9.73;3.40;;;20.30;99.90;;;;;;5112658;28;20211;-81
2023/05/24 13:05:05;;;;;;;14.73;3.28;;;20.20;99.90;;;;;;5112441;28;20188;-78
2023/05/24 13:07:32;;;;;;;9.25;3.53;;;20.20;99.90;;;;;;5112008;28;20222;-80